Terminal Aerodrome Forecast
Issued by NWS Dodge City, KS

Home | Current Version | Previous Version | Text Only | Print | Product List | Glossary On
Versions: 1 2 3 4 5 6 7 8 9 10 11 12 13 14 15 16 17 18
000
FTUS43 KDDC 181100
TAFDDC
TAF
KDDC 181133Z 1812/1912 18010KT 4SM BR SCT015
      TEMPO 1812/1814 BKN015
     FM181500 18018G28KT P6SM FEW040
     FM190200 17015KT P6SM SCT250=

USA.gov is the U.S. government's official web portal to all federal, state and local government web resources and services.